Time;durP1;ratioP1;P1;durP2;ratioP2;P2;SDS_P1;SDS_P2;PMS_P1;PMS_P2;Temp;Humidity;BMP_temperature;BMP_pressure;BME280_temperature;BME280_humidity;BME280_pressure;Samples;Min_cycle;Max_cycle;Signal;HPM_P1;HPM_P2
2023/03/03 00:01:37;;;;;;;175.97;57.07;;;;;;;-36.57;100.00;94737.16;4239200;28;20230;-69
2023/03/03 00:04:04;;;;;;;180.73;58.87;;;;;;;-36.61;100.00;94739.63;4233114;28;20339;-67
2023/03/03 00:06:31;;;;;;;188.23;58.87;;;;;;;-36.64;100.00;94734.72;4216341;28;20370;-67
2023/03/03 00:08:57;;;;;;;187.00;59.73;;;;;;;-36.67;100.00;94735.56;4227918;28;20421;-67
2023/03/03 00:11:24;;;;;;;169.93;56.73;;;;;;;-36.61;100.00;94728.13;4227481;28;22217;-69
2023/03/03 00:13:53;;;;;;;180.87;56.07;;;;;;;-36.58;100.00;94729.78;4227461;28;21000;-67
2023/03/03 00:16:37;;;;;;;188.33;58.97;;;;;;;-36.58;100.00;94729.78;4200055;28;25052;-68
2023/03/03 00:19:12;;;;;;;177.97;56.93;;;;;;;-36.36;100.00;94726.34;4196432;28;20248;-69
2023/03/03 00:21:41;;;;;;;187.33;57.20;;;;;;;-36.40;100.00;94729.63;4217716;28;20329;-69
2023/03/03 00:24:22;;;;;;;166.13;56.93;;;;;;;-36.36;100.00;94733.72;4222991;28;25568;-68
2023/03/03 00:26:54;;;;;;;165.53;56.70;;;;;;;-36.35;100.00;94732.06;4208404;28;20253;-67
2023/03/03 00:29:34;;;;;;;173.33;57.00;;;;;;;-36.32;100.00;94723.03;4225863;28;20261;-69
2023/03/03 00:32:27;;;;;;;178.13;58.80;;;;;;;-36.47;100.00;94718.19;4182481;28;20240;-69
2023/03/03 00:34:55;;;;;;;176.07;55.40;;;;;;;-36.48;100.00;94716.56;4215225;28;20351;-67
2023/03/03 00:37:28;;;;;;;171.77;55.53;;;;;;;-36.50;100.00;94705.94;4227212;28;21361;-68
2023/03/03 00:40:22;;;;;;;179.53;57.47;;;;;;;-36.43;100.00;94705.06;4227445;28;20370;-68
2023/03/03 00:42:54;;;;;;;180.73;58.37;;;;;;;-36.48;100.00;94704.28;4232317;28;20485;-69
2023/03/03 00:45:35;;;;;;;164.70;55.37;;;;;;;-36.48;100.00;94704.28;4215812;28;20231;-68
2023/03/03 00:48:16;;;;;;;167.63;56.70;;;;;;;-36.61;100.00;94693.72;4218971;28;20260;-68
2023/03/03 00:50:43;;;;;;;177.57;57.47;;;;;;;-36.64;100.00;94693.75;4224074;28;20238;-69
2023/03/03 00:53:17;;;;;;;184.27;56.70;;;;;;;-36.59;100.00;94694.53;4226146;28;22255;-70
2023/03/03 00:55:46;;;;;;;171.27;58.70;;;;;;;-36.46;100.00;94695.25;4226752;28;20578;-69
2023/03/03 00:58:12;;;;;;;171.30;56.90;;;;;;;-36.37;100.00;94689.47;4210095;28;21950;-71
2023/03/03 01:00:40;;;;;;;168.17;56.37;;;;;;;-36.50;100.00;94685.44;4211341;28;20717;-70
2023/03/03 01:03:20;;;;;;;175.50;56.30;;;;;;;-36.56;100.00;94677.28;4215850;28;20308;-68
2023/03/03 01:05:47;;;;;;;166.80;54.47;;;;;;;-36.46;100.00;94674.75;4211130;28;26557;-69
2023/03/03 01:08:19;;;;;;;167.03;55.30;;;;;;;-36.61;100.00;94675.69;4210155;28;20235;-69
2023/03/03 01:10:54;;;;;;;175.77;55.67;;;;;;;-36.80;100.00;94667.63;4193298;28;20576;-71
2023/03/03 01:13:23;;;;;;;156.83;53.17;;;;;;;-36.71;100.00;94674.13;4185261;28;20239;-69
2023/03/03 01:15:51;;;;;;;166.13;54.27;;;;;;;-36.69;100.00;94667.56;4195843;28;22000;-71
2023/03/03 01:18:17;;;;;;;160.77;53.83;;;;;;;-36.67;100.00;94656.06;4233669;28;20306;-69
2023/03/03 01:20:44;;;;;;;170.87;53.93;;;;;;;-36.73;100.00;94653.66;4222507;28;23038;-69
2023/03/03 01:23:11;;;;;;;175.87;54.57;;;;;;;-36.78;100.00;94649.56;4224554;28;20242;-70
2023/03/03 01:25:38;;;;;;;153.60;52.47;;;;;;;-36.70;100.00;94653.63;4187757;28;20232;-68
2023/03/03 01:28:04;;;;;;;167.90;54.93;;;;;;;-36.80;100.00;94635.66;4202663;28;20241;-68
2023/03/03 01:30:31;;;;;;;159.57;52.57;;;;;;;-36.79;100.00;94635.66;4217867;28;20237;-67
2023/03/03 01:32:58;;;;;;;149.93;51.03;;;;;;;-36.70;100.00;94636.41;4214013;28;20708;-70
2023/03/03 01:35:24;;;;;;;164.97;54.83;;;;;;;-36.68;100.00;94637.22;4195465;28;22464;-68
2023/03/03 01:37:51;;;;;;;158.93;51.40;;;;;;;-36.64;100.00;94622.44;4198467;28;20239;-69
2023/03/03 01:40:25;;;;;;;142.67;50.57;;;;;;;-36.57;100.00;94633.84;4226421;28;20691;-68
2023/03/03 01:42:51;;;;;;;146.13;47.97;;;;;;;-36.56;100.00;94629.72;4216660;28;22144;-68
2023/03/03 01:45:20;;;;;;;152.57;49.83;;;;;;;-36.67;100.00;94617.53;4214872;28;21622;-69
2023/03/03 01:48:05;;;;;;;148.03;49.53;;;;;;;-36.69;100.00;94618.38;4235295;28;22346;-69
2023/03/03 01:50:46;;;;;;;150.13;52.10;;;;;;;-36.73;100.00;94619.22;4236286;28;21281;-67
2023/03/03 01:53:19;;;;;;;150.10;50.53;;;;;;;-36.86;100.00;94620.97;4210712;28;20420;-69
2023/03/03 01:55:46;;;;;;;146.53;49.93;;;;;;;-36.86;100.00;94616.84;4229184;28;20222;-70
2023/03/03 01:58:18;;;;;;;144.87;48.63;;;;;;;-36.88;100.00;94617.69;4230401;28;20273;-68
2023/03/03 02:00:49;;;;;;;147.37;49.20;;;;;;;-36.88;100.00;94620.97;4232872;28;20254;-70
2023/03/03 02:03:19;;;;;;;139.93;48.77;;;;;;;-36.84;100.00;94620.13;4209118;28;20294;-69
2023/03/03 02:05:46;;;;;;;145.90;49.07;;;;;;;-36.82;100.00;94613.53;4213285;28;20408;-69
2023/03/03 02:08:17;;;;;;;145.60;49.23;;;;;;;-36.80;100.00;94616.00;4205486;28;23022;-70
2023/03/03 02:10:45;;;;;;;141.83;49.00;;;;;;;-36.90;100.00;94610.31;4222128;28;20313;-70
2023/03/03 02:13:12;;;;;;;149.17;50.37;;;;;;;-36.89;100.00;94611.13;4229125;28;20235;-69
2023/03/03 02:15:39;;;;;;;135.40;45.53;;;;;;;-36.85;100.00;94611.09;4224704;28;20525;-69
2023/03/03 02:18:18;;;;;;;152.97;48.13;;;;;;;-36.83;100.00;94611.91;4231989;28;20223;-71
2023/03/03 02:20:53;;;;;;;138.67;47.87;;;;;;;-36.71;100.00;94620.03;4228091;28;20254;-68
2023/03/03 02:23:44;;;;;;;142.07;47.70;;;;;;;-36.79;100.00;94615.19;4220040;28;20530;-68
2023/03/03 02:26:13;;;;;;;144.40;48.40;;;;;;;-36.73;100.00;94616.75;4209365;28;20245;-68
2023/03/03 02:28:41;;;;;;;144.47;48.33;;;;;;;-36.79;100.00;94613.53;4196888;28;20331;-69
2023/03/03 02:31:12;;;;;;;150.33;50.87;;;;;;;-36.89;100.00;94616.84;4197795;28;20411;-70
2023/03/03 02:33:43;;;;;;;152.20;48.63;;;;;;;-36.79;100.00;94617.63;4225365;28;25312;-67
2023/03/03 02:36:19;;;;;;;146.50;49.20;;;;;;;-36.80;100.00;94620.91;4229460;28;22940;-69
2023/03/03 02:38:48;;;;;;;139.03;47.00;;;;;;;-36.77;100.00;94614.34;4212919;28;20231;-70
2023/03/03 02:41:25;;;;;;;139.50;46.73;;;;;;;-36.91;100.00;94618.53;4198361;28;20332;-67
2023/03/03 02:44:19;;;;;;;154.60;48.97;;;;;;;-37.01;100.00;94620.19;4216876;28;20424;-68
2023/03/03 02:46:47;;;;;;;155.17;49.40;;;;;;;-37.02;100.00;94620.22;4240145;28;20409;-70
2023/03/03 02:49:18;;;;;;;146.23;48.33;;;;;;;-37.05;100.00;94615.34;4224413;28;23973;-68
2023/03/03 02:51:45;;;;;;;144.67;47.37;;;;;;;-37.07;100.00;94614.56;4215846;28;20316;-68
2023/03/03 02:54:13;;;;;;;136.70;45.90;;;;;;;-37.03;100.00;94607.13;4199360;28;22963;-67
2023/03/03 02:56:40;;;;;;;137.57;46.33;;;;;;;-37.08;100.00;94605.53;4198957;28;20244;-68
2023/03/03 02:59:07;;;;;;;143.60;47.83;;;;;;;-37.15;100.00;94603.94;4229072;28;20242;-71
2023/03/03 03:01:37;;;;;;;142.00;46.10;;;;;;;-37.16;100.00;94604.78;4226246;28;20328;-68
2023/03/03 03:04:18;;;;;;;135.97;45.73;;;;;;;-37.20;100.00;94607.25;4230504;28;20226;-67
2023/03/03 03:06:45;;;;;;;154.87;45.93;;;;;;;-37.13;100.00;94608.03;4230471;28;20231;-69
2023/03/03 03:09:13;;;;;;;161.70;47.50;;;;;;;-37.11;100.00;94608.84;4190594;28;21392;-66
2023/03/03 03:11:40;;;;;;;153.83;47.63;;;;;;;-37.12;100.00;94599.00;4196672;28;20237;-71
2023/03/03 03:14:08;;;;;;;160.40;49.00;;;;;;;-37.17;100.00;94590.84;4196355;28;23811;-71
2023/03/03 03:16:35;;;;;;;154.70;49.40;;;;;;;-37.16;100.00;94597.41;4195116;28;20601;-69
2023/03/03 03:19:02;;;;;;;161.93;48.77;;;;;;;-37.11;100.00;94603.13;4187508;28;20407;-68
2023/03/03 03:21:30;;;;;;;163.60;49.60;;;;;;;-37.14;100.00;94600.66;4211221;28;20239;-70
2023/03/03 03:23:57;;;;;;;163.03;51.70;;;;;;;-37.20;100.00;94592.50;4214929;28;21682;-69
2023/03/03 03:26:23;;;;;;;176.80;52.37;;;;;;;-37.22;100.00;94596.59;4198855;28;26574;-69
2023/03/03 03:28:50;;;;;;;169.67;52.73;;;;;;;-37.19;100.00;94599.06;4229746;28;20316;-67
2023/03/03 03:31:18;;;;;;;180.93;54.03;;;;;;;-37.14;100.00;94590.81;4192517;28;20243;-67
2023/03/03 03:33:44;;;;;;;166.20;52.27;;;;;;;-37.17;100.00;94595.78;4218026;28;20219;-68
2023/03/03 03:36:11;;;;;;;161.30;51.07;;;;;;;-37.22;100.00;94589.22;4235336;28;20342;-68
2023/03/03 03:38:38;;;;;;;169.90;51.93;;;;;;;-37.22;100.00;94599.06;4198656;28;20279;-68
2023/03/03 03:41:05;;;;;;;164.53;52.60;;;;;;;-37.28;100.00;94596.66;4192468;28;20240;-69
2023/03/03 03:43:31;;;;;;;165.70;52.67;;;;;;;-37.33;100.00;94590.94;4222773;28;20237;-68
2023/03/03 03:45:58;;;;;;;168.40;53.93;;;;;;;-37.25;100.00;94594.16;4195062;28;20668;-68
2023/03/03 03:48:25;;;;;;;170.23;52.60;;;;;;;-37.28;100.00;94584.38;4192181;28;20229;-68
2023/03/03 03:50:52;;;;;;;161.80;53.30;;;;;;;-37.27;100.00;94585.19;4192621;28;21120;-68
2023/03/03 03:53:18;;;;;;;167.27;52.43;;;;;;;-37.31;100.00;94589.28;4197916;28;21136;-66
2023/03/03 03:55:45;;;;;;;167.13;51.67;;;;;;;-37.27;100.00;94581.06;4198974;28;20336;-69
2023/03/03 03:58:13;;;;;;;164.10;51.00;;;;;;;-37.28;100.00;94569.63;4195205;28;20336;-69
2023/03/03 04:00:41;;;;;;;159.67;51.07;;;;;;;-37.20;100.00;94572.84;4184723;28;20710;-68
2023/03/03 04:03:08;;;;;;;163.43;51.17;;;;;;;-37.23;100.00;94575.31;4196647;28;21286;-68
2023/03/03 04:05:35;;;;;;;177.20;50.87;;;;;;;-37.14;100.00;94578.53;4229730;28;20344;-68
2023/03/03 04:08:02;;;;;;;159.23;52.07;;;;;;;-37.19;100.00;94569.59;4236579;28;20243;-73
2023/03/03 04:10:29;;;;;;;172.23;51.87;;;;;;;-37.30;100.00;94573.72;4211398;28;20286;-68
2023/03/03 04:12:56;;;;;;;171.67;51.27;;;;;;;-37.33;100.00;94570.47;4221943;28;20319;-66
2023/03/03 04:15:23;;;;;;;162.80;50.87;;;;;;;-37.33;100.00;94566.41;4219830;28;20326;-69
2023/03/03 04:17:49;;;;;;;169.60;52.30;;;;;;;-37.37;100.00;94567.22;4216624;28;20234;-66
2023/03/03 04:20:16;;;;;;;176.80;52.00;;;;;;;-37.36;100.00;94566.38;4220010;28;20906;-67
2023/03/03 04:22:42;;;;;;;177.50;56.13;;;;;;;-37.41;100.00;94563.16;4237792;28;20313;-67
2023/03/03 04:25:14;;;;;;;179.13;53.67;;;;;;;-37.40;100.00;94562.34;4233694;28;20294;-68
2023/03/03 04:27:42;;;;;;;193.27;56.50;;;;;;;-37.40;100.00;94554.97;4189722;28;20237;-67
2023/03/03 04:30:09;;;;;;;176.57;54.87;;;;;;;-37.40;100.00;94554.97;4195532;28;20260;-69
2023/03/03 04:32:36;;;;;;;187.13;56.37;;;;;;;-37.41;100.00;94553.31;4198660;28;20233;-68
2023/03/03 04:35:02;;;;;;;190.67;56.83;;;;;;;-37.41;100.00;94543.50;4230170;28;20377;-67
2023/03/03 04:37:34;;;;;;;190.43;55.63;;;;;;;-37.42;100.00;94551.72;4221236;28;21266;-66
2023/03/03 04:40:00;;;;;;;199.43;59.93;;;;;;;-37.42;100.00;94549.25;4212844;28;22223;-68
2023/03/03 04:42:27;;;;;;;187.93;56.77;;;;;;;-37.46;100.00;94550.09;4237601;28;22995;-68
2023/03/03 04:44:54;;;;;;;181.23;56.93;;;;;;;-37.43;100.00;94548.41;4227183;28;22151;-67
2023/03/03 04:47:20;;;;;;;200.27;56.93;;;;;;;-37.45;100.00;94549.25;4197871;28;21789;-70
2023/03/03 04:49:47;;;;;;;198.27;58.50;;;;;;;-37.42;100.00;94541.88;4225634;28;20673;-67
2023/03/03 04:52:13;;;;;;;196.23;58.73;;;;;;;-37.44;100.00;94543.53;4226473;28;21600;-67
2023/03/03 04:54:40;;;;;;;204.03;59.47;;;;;;;-37.48;100.00;94539.44;4198879;28;22016;-68
2023/03/03 04:57:08;;;;;;;203.60;59.03;;;;;;;-37.45;100.00;94535.34;4197010;28;20332;-68
2023/03/03 04:59:35;;;;;;;198.03;59.10;;;;;;;-37.50;100.00;94533.72;4180190;28;20542;-67
2023/03/03 05:02:04;;;;;;;181.80;57.67;;;;;;;-37.49;100.00;94528.81;4194682;28;20240;-67
2023/03/03 05:04:31;;;;;;;204.63;60.00;;;;;;;-37.48;100.00;94532.09;4194514;28;21620;-68
2023/03/03 05:06:58;;;;;;;205.50;58.13;;;;;;;-37.43;100.00;94525.50;4203712;28;20243;-68
2023/03/03 05:09:25;;;;;;;199.67;59.60;;;;;;;-37.47;100.00;94529.63;4229788;28;20231;-67
2023/03/03 05:11:51;;;;;;;202.87;59.53;;;;;;;-37.48;100.00;94522.25;4225724;28;20287;-67
2023/03/03 05:14:18;;;;;;;210.03;62.00;;;;;;;-37.45;100.00;94523.06;4188079;28;25752;-68
2023/03/03 05:16:44;;;;;;;198.43;60.33;;;;;;;-37.52;100.00;94532.94;4197391;28;20300;-66
2023/03/03 05:19:11;;;;;;;193.67;58.40;;;;;;;-37.47;100.00;94534.53;4188419;28;20242;-69
2023/03/03 05:21:41;;;;;;;210.97;60.50;;;;;;;-37.44;100.00;94533.72;4211030;28;20315;-68
2023/03/03 05:24:10;;;;;;;215.53;62.50;;;;;;;-37.41;100.00;94538.59;4223413;28;20247;-67
2023/03/03 05:26:37;;;;;;;223.87;63.90;;;;;;;-37.37;100.00;94524.66;4235630;28;20227;-68
2023/03/03 05:29:03;;;;;;;214.57;62.00;;;;;;;-37.35;100.00;94520.56;4225950;28;22721;-67
2023/03/03 05:31:30;;;;;;;237.63;67.40;;;;;;;-37.35;100.00;94523.84;4225127;28;20446;-68
2023/03/03 05:33:57;;;;;;;233.80;64.57;;;;;;;-37.28;100.00;94524.63;4190004;28;20262;-65
2023/03/03 05:36:24;;;;;;;249.90;66.47;;;;;;;-37.29;100.00;94523.78;4177345;28;21112;-68
2023/03/03 05:38:50;;;;;;;243.53;66.23;;;;;;;-37.25;100.00;94530.31;4182517;28;20407;-67
2023/03/03 05:41:17;;;;;;;251.67;67.23;;;;;;;-37.22;100.00;94535.19;4209407;28;20244;-68
2023/03/03 05:43:44;;;;;;;239.27;65.33;;;;;;;-37.19;100.00;94530.28;4197746;28;20234;-70
2023/03/03 05:46:10;;;;;;;271.30;68.93;;;;;;;-37.19;100.00;94532.72;4226255;28;20231;-70
2023/03/03 05:48:37;;;;;;;257.97;69.30;;;;;;;-37.20;100.00;94528.63;4231036;28;20814;-67
2023/03/03 05:51:04;;;;;;;272.87;69.30;;;;;;;-37.16;100.00;94531.09;4220364;28;20360;-68
2023/03/03 05:53:30;;;;;;;289.00;76.60;;;;;;;-37.20;100.00;94526.16;4227210;28;20291;-68
2023/03/03 05:55:57;;;;;;;302.17;70.93;;;;;;;-37.14;100.00;94532.69;4195830;28;20332;-67
2023/03/03 05:58:24;;;;;;;274.23;70.47;;;;;;;-37.07;100.00;94523.66;4203859;28;20434;-68
2023/03/03 06:00:50;;;;;;;298.87;70.10;;;;;;;-37.16;100.00;94518.78;4202221;28;20300;-69
2023/03/03 06:03:17;;;;;;;255.50;68.20;;;;;;;-37.12;100.00;94522.84;4192270;28;20241;-67
2023/03/03 06:05:44;;;;;;;284.10;67.90;;;;;;;-37.07;100.00;94521.19;4197001;28;20292;-67
2023/03/03 06:08:11;;;;;;;299.40;67.17;;;;;;;-37.10;100.00;94513.81;4214690;28;21144;-68
2023/03/03 06:10:37;;;;;;;368.20;70.87;;;;;;;-37.22;100.00;94514.72;4212658;28;20345;-67
2023/03/03 06:13:04;;;;;;;369.00;67.03;;;;;;;-37.29;100.00;94518.84;4231332;28;20235;-67
2023/03/03 06:15:30;;;;;;;286.40;65.47;;;;;;;-37.34;100.00;94530.34;4235974;28;20317;-69
2023/03/03 06:17:57;;;;;;;349.23;72.30;;;;;;;-37.32;100.00;94527.91;4234523;28;20226;-68
2023/03/03 06:20:24;;;;;;;312.50;69.00;;;;;;;-37.29;100.00;94530.34;4189708;28;20482;-68
2023/03/03 06:22:50;;;;;;;368.80;73.53;;;;;;;-37.31;100.00;94530.31;4192581;28;20241;-67
2023/03/03 06:25:17;;;;;;;283.07;66.90;;;;;;;-37.22;100.00;94535.19;4202242;28;21313;-68
2023/03/03 06:27:44;;;;;;;315.57;67.30;;;;;;;-37.22;100.00;94525.34;4188533;28;20229;-67
2023/03/03 06:30:11;;;;;;;308.03;67.90;;;;;;;-37.22;100.00;94522.09;4178799;28;26533;-66
2023/03/03 06:32:38;;;;;;;316.07;63.87;;;;;;;-37.17;100.00;94519.59;4199469;28;20233;-64
2023/03/03 06:35:05;;;;;;;274.53;59.73;;;;;;;-37.17;100.00;94517.16;4192668;28;20236;-65
2023/03/03 06:37:32;;;;;;;301.67;62.13;;;;;;;-37.14;100.00;94532.69;4184122;28;20555;-65
2023/03/03 06:39:59;;;;;;;261.40;56.40;;;;;;;-37.18;100.00;94531.09;4212540;28;20231;-67
2023/03/03 06:42:26;;;;;;;299.23;58.43;;;;;;;-37.16;100.00;94528.63;4197594;28;20247;-66
2023/03/03 06:44:52;;;;;;;254.70;53.63;;;;;;;-37.17;100.00;94529.44;4198107;28;20423;-67
2023/03/03 06:47:19;;;;;;;224.67;54.07;;;;;;;-37.09;100.00;94530.22;4207992;28;20267;-69
2023/03/03 06:49:45;;;;;;;247.90;53.37;;;;;;;-37.05;100.00;94531.78;4204251;28;22500;-66
2023/03/03 06:52:23;;;;;;;267.93;53.03;;;;;;;-37.05;100.00;94529.34;4207636;28;21754;-68
2023/03/03 06:54:53;;;;;;;253.43;51.87;;;;;;;-37.03;100.00;94520.28;4205412;28;21479;-67
2023/03/03 06:57:28;;;;;;;244.33;52.90;;;;;;;-37.01;100.00;94526.00;4200700;28;20328;-68
2023/03/03 07:00:00;;;;;;;237.37;47.63;;;;;;;-36.96;100.00;94531.69;4195355;28;22345;-68
2023/03/03 07:02:27;;;;;;;210.10;47.73;;;;;;;-36.84;100.00;94535.72;4209110;28;20337;-68
2023/03/03 07:04:55;;;;;;;229.07;48.97;;;;;;;-36.92;100.00;94528.41;4215501;28;20242;-66
2023/03/03 07:07:24;;;;;;;255.43;49.73;;;;;;;-36.80;100.00;94529.94;4201020;28;23801;-66
2023/03/03 07:09:55;;;;;;;233.93;50.07;;;;;;;-36.76;100.00;94520.06;4184154;28;25450;-68
2023/03/03 07:12:24;;;;;;;230.17;47.13;;;;;;;-36.73;100.00;94523.34;4191731;28;22559;-67
2023/03/03 07:15:16;;;;;;;201.83;49.47;;;;;;;-36.73;100.00;94529.06;4183665;28;20422;-66
2023/03/03 07:17:46;;;;;;;247.10;49.17;;;;;;;-36.74;100.00;94521.72;4207825;28;21180;-66
2023/03/03 07:20:22;;;;;;;234.90;49.03;;;;;;;-36.70;100.00;94519.22;4192889;28;20236;-66
2023/03/03 07:22:50;;;;;;;215.17;44.17;;;;;;;-36.68;100.00;94516.72;4176596;28;22526;-67
2023/03/03 07:25:31;;;;;;;227.13;47.47;;;;;;;-36.67;100.00;94508.53;4198638;28;20249;-63
2023/03/03 07:28:19;;;;;;;231.80;45.00;;;;;;;-36.77;100.00;94517.63;4193686;28;21396;-65
2023/03/03 07:30:46;;;;;;;227.47;46.27;;;;;;;-36.73;100.00;94504.47;4224741;28;21000;-65
2023/03/03 07:33:25;;;;;;;268.33;45.70;;;;;;;-36.74;100.00;94502.88;4200443;28;21742;-64
2023/03/03 07:35:54;;;;;;;233.47;45.77;;;;;;;-36.66;100.00;94522.47;4226942;28;21201;-63
2023/03/03 07:38:44;;;;;;;249.70;47.63;;;;;;;-36.60;100.00;94519.97;4179704;28;22439;-67
2023/03/03 07:41:19;;;;;;;246.93;47.57;;;;;;;-36.57;100.00;94525.66;4195484;28;23695;-66
2023/03/03 07:43:53;;;;;;;239.97;46.47;;;;;;;-36.51;100.00;94529.69;4193621;28;20256;-64
2023/03/03 07:46:43;;;;;;;220.60;47.00;;;;;;;-36.46;100.00;94532.91;4229311;28;20234;-67
2023/03/03 07:49:36;;;;;;;228.47;46.20;;;;;;;-36.44;100.00;94535.34;4237036;28;21662;-65
2023/03/03 07:52:27;;;;;;;255.30;49.93;;;;;;;-36.34;100.00;94537.69;4187245;28;21791;-64
2023/03/03 07:54:56;;;;;;;215.00;44.60;;;;;;;-36.29;100.00;94536.84;4201798;28;20225;-66
2023/03/03 07:57:28;;;;;;;220.80;47.10;;;;;;;-36.30;100.00;94526.19;4215488;28;20861;-64
2023/03/03 08:00:03;;;;;;;224.97;46.57;;;;;;;-36.34;100.00;94537.69;4229296;28;20417;-65
2023/03/03 08:02:58;;;;;;;198.33;44.43;;;;;;;-36.26;100.00;94529.44;4216694;28;20518;-67
2023/03/03 08:05:29;;;;;;;184.47;41.43;;;;;;;-36.23;100.00;94531.84;4231357;28;20234;-66
2023/03/03 08:08:09;;;;;;;190.00;42.43;;;;;;;-36.21;100.00;94526.13;4226760;28;20231;-67
2023/03/03 08:10:56;;;;;;;198.37;42.27;;;;;;;-36.18;100.00;94532.66;4239871;28;22480;-67
2023/03/03 08:13:37;;;;;;;189.13;43.97;;;;;;;-36.14;100.00;94537.53;4234148;28;21762;-69
2023/03/03 08:16:09;;;;;;;187.50;40.30;;;;;;;-36.11;100.00;94549.78;4226008;28;20393;-66
2023/03/03 08:18:40;;;;;;;174.83;40.47;;;;;;;-36.15;100.00;94539.97;4228779;28;20223;-68
2023/03/03 08:21:10;;;;;;;165.30;41.07;;;;;;;-36.09;100.00;94544.84;4216574;28;20691;-68
2023/03/03 08:23:36;;;;;;;158.43;37.83;;;;;;;-36.03;100.00;94553.78;4210222;28;20398;-65
2023/03/03 08:26:03;;;;;;;165.70;38.20;;;;;;;-36.04;100.00;94549.69;4216017;28;20241;-66
2023/03/03 08:28:30;;;;;;;162.20;39.43;;;;;;;-36.03;100.00;94549.66;4209887;28;20306;-66
2023/03/03 08:30:57;;;;;;;137.97;35.67;;;;;;;-36.02;100.00;94562.78;4234664;28;20227;-66
2023/03/03 08:33:42;;;;;;;151.40;38.40;;;;;;;-36.00;100.00;94564.41;4229491;28;20281;-67
2023/03/03 08:36:09;;;;;;;165.53;39.10;;;;;;;-35.92;100.00;94561.88;4230103;28;20302;-65
2023/03/03 08:38:36;;;;;;;149.53;37.60;;;;;;;-35.86;100.00;94573.28;4226243;28;20227;-67
2023/03/03 08:41:04;;;;;;;169.83;39.77;;;;;;;-35.84;100.00;94587.22;4224898;28;21682;-67
2023/03/03 08:43:31;;;;;;;153.30;38.53;;;;;;;-35.80;100.00;94585.53;4226421;28;22050;-67
2023/03/03 08:46:00;;;;;;;151.53;38.53;;;;;;;-35.74;100.00;94585.47;4225302;28;20760;-68
2023/03/03 08:48:28;;;;;;;151.37;38.83;;;;;;;-35.74;100.00;94586.31;4177334;28;20585;-65
2023/03/03 08:50:55;;;;;;;151.27;39.27;;;;;;;-35.73;100.00;94589.56;4180700;28;20230;-67
2023/03/03 08:53:22;;;;;;;155.73;39.47;;;;;;;-35.82;100.00;94583.09;4187416;28;22330;-65
2023/03/03 08:55:49;;;;;;;144.40;38.67;;;;;;;-35.63;100.00;94586.16;4179739;28;22074;-67
2023/03/03 08:58:18;;;;;;;144.13;37.80;;;;;;;-35.59;100.00;94587.75;4201803;28;21809;-66
2023/03/03 09:00:45;;;;;;;140.07;39.77;;;;;;;-35.71;100.00;94587.91;4198911;28;21718;-64
2023/03/03 09:03:16;;;;;;;151.40;37.80;;;;;;;-35.56;100.00;94580.31;4200985;28;20714;-67
2023/03/03 09:05:43;;;;;;;145.07;40.13;;;;;;;-35.50;100.00;94582.69;4202331;28;20308;-67
2023/03/03 09:08:10;;;;;;;140.87;38.57;;;;;;;-35.28;100.00;94582.44;4224352;28;22012;-68
2023/03/03 09:10:37;;;;;;;138.60;37.17;;;;;;;-35.23;100.00;94583.19;4223617;28;20389;-68
2023/03/03 09:13:10;;;;;;;133.03;37.60;;;;;;;-35.46;100.00;94584.31;4228030;28;20230;-66
2023/03/03 09:15:37;;;;;;;124.90;34.13;;;;;;;-35.68;100.00;94573.91;4217211;28;20254;-66
2023/03/03 09:18:12;;;;;;;122.30;34.00;;;;;;;-35.50;100.00;94577.78;4200262;28;21390;-66
2023/03/03 09:20:48;;;;;;;99.83;30.37;;;;;;;-35.30;100.00;94572.59;4195982;28;22113;-68
2023/03/03 09:23:35;;;;;;;110.37;29.87;;;;;;;-35.33;100.00;94560.31;4218426;28;23691;-65
2023/03/03 09:26:21;;;;;;;85.80;26.80;;;;;;;-35.36;100.00;94557.09;4234974;28;20284;-67
2023/03/03 09:28:48;;;;;;;84.40;26.47;;;;;;;-35.34;100.00;94563.63;4239478;28;20235;-68
2023/03/03 09:31:25;;;;;;;94.20;29.23;;;;;;;-35.38;100.00;94551.38;4228180;28;21053;-65
2023/03/03 09:33:56;;;;;;;90.20;27.97;;;;;;;-35.32;100.00;94551.25;4231190;28;20288;-65
2023/03/03 09:36:29;;;;;;;87.53;29.07;;;;;;;-35.30;100.00;94559.44;4205690;28;22088;-67
2023/03/03 09:38:57;;;;;;;94.90;27.93;;;;;;;-35.23;100.00;94546.22;4226676;28;20235;-68
2023/03/03 09:41:48;;;;;;;88.60;28.23;;;;;;;-35.29;100.00;94548.78;4234552;28;20246;-68
2023/03/03 09:44:36;;;;;;;89.23;28.23;;;;;;;-35.28;100.00;94547.94;4238228;28;20774;-69
2023/03/03 09:47:05;;;;;;;85.07;28.10;;;;;;;-35.49;100.00;94544.91;4229079;28;20241;-64
2023/03/03 09:49:51;;;;;;;80.97;25.93;;;;;;;-35.53;100.00;94538.41;4231268;28;21208;-66
2023/03/03 09:52:30;;;;;;;74.37;25.83;;;;;;;-35.50;100.00;94537.56;4243177;28;20283;-66
2023/03/03 09:55:21;;;;;;;84.73;27.37;;;;;;;-35.44;100.00;94539.09;4220155;28;20327;-68
2023/03/03 09:57:57;;;;;;;94.00;29.07;;;;;;;-35.50;100.00;94540.81;4243206;28;20246;-66
2023/03/03 10:01:15;;;;;;;84.93;27.17;;;;;;;-35.59;100.00;94531.06;4230438;28;20230;-65
2023/03/03 10:04:06;;;;;;;94.13;28.10;;;;;;;-35.61;100.00;94540.16;4224602;28;20253;-68
2023/03/03 10:06:33;;;;;;;93.00;29.57;;;;;;;-35.64;100.00;94530.34;4207003;28;20450;-66
2023/03/03 10:09:17;;;;;;;96.60;29.10;;;;;;;-35.66;100.00;94528.75;4225581;28;20234;-66
2023/03/03 10:11:50;;;;;;;90.33;29.10;;;;;;;-35.64;100.00;94539.41;4221125;28;20249;-67
2023/03/03 10:14:36;;;;;;;105.50;28.93;;;;;;;-35.63;100.00;94541.81;4230117;28;20252;-67
2023/03/03 10:17:05;;;;;;;88.53;27.33;;;;;;;-35.63;100.00;94541.03;4230374;28;20409;-65
2023/03/03 10:19:59;;;;;;;97.23;28.37;;;;;;;-35.69;100.00;94527.94;4230576;28;20235;-69
2023/03/03 10:22:47;;;;;;;90.47;27.27;;;;;;;-35.49;100.00;94544.91;4205356;28;20238;-64
2023/03/03 10:25:27;;;;;;;95.47;29.03;;;;;;;-35.55;100.00;94541.72;4238025;28;20421;-63
2023/03/03 10:28:03;;;;;;;91.10;28.27;;;;;;;-35.46;100.00;94544.88;4229458;28;20399;-67
2023/03/03 10:31:03;;;;;;;78.40;26.43;;;;;;;-35.49;100.00;94537.50;4228794;28;21218;-72
2023/03/03 10:33:37;;;;;;;88.63;27.33;;;;;;;-35.50;100.00;94537.56;4229391;28;20231;-69
2023/03/03 10:36:20;;;;;;;72.90;25.07;;;;;;;-35.48;100.00;94546.56;4219027;28;21740;-70
2023/03/03 10:38:55;;;;;;;77.53;23.77;;;;;;;-35.56;100.00;94548.28;4190363;28;21612;-71
2023/03/03 10:41:58;;;;;;;72.57;24.17;;;;;;;-35.49;100.00;94557.22;4205238;28;20220;-70
2023/03/03 10:44:46;;;;;;;82.07;26.00;;;;;;;-35.41;100.00;94561.25;4235673;28;20252;-70
2023/03/03 10:47:37;;;;;;;82.17;25.20;;;;;;;-35.47;100.00;94554.75;4201096;28;20244;-70
2023/03/03 10:50:14;;;;;;;74.27;24.67;;;;;;;-35.35;100.00;94561.16;4230583;28;20348;-70
2023/03/03 10:52:48;;;;;;;68.83;23.33;;;;;;;-35.37;100.00;94560.38;4201787;28;20347;-73
2023/03/03 10:55:17;;;;;;;71.00;24.73;;;;;;;-35.42;100.00;94554.69;4219454;28;20270;-68
2023/03/03 10:57:56;;;;;;;66.33;23.23;;;;;;;-35.48;100.00;94558.88;4201203;28;20363;-70
2023/03/03 11:00:34;;;;;;;69.80;24.17;;;;;;;-35.51;100.00;94556.41;4240168;28;20406;-68
2023/03/03 11:03:13;;;;;;;65.40;23.17;;;;;;;-35.46;100.00;94557.19;4211799;28;20231;-69
2023/03/03 11:05:50;;;;;;;61.10;21.37;;;;;;;-35.20;100.00;94546.19;4223659;28;20633;-68
2023/03/03 11:08:48;;;;;;;68.33;25.23;;;;;;;-35.43;100.00;94558.00;4189326;28;20274;-69
2023/03/03 11:11:54;;;;;;;57.67;21.77;;;;;;;-35.39;100.00;94560.41;4195225;28;20302;-68
2023/03/03 11:14:37;;;;;;;59.07;23.30;;;;;;;-35.36;100.00;94547.22;4202261;28;22992;-68
2023/03/03 11:17:24;;;;;;;63.13;22.87;;;;;;;-35.41;100.00;94559.63;4203080;28;21273;-70